createdAt,value
2017-12-29T00:00:04.060Z,1.10
2017-12-29T00:02:31.605Z,1.10
2017-12-29T00:04:59.138Z,1.10
2017-12-29T00:07:26.765Z,1.10
2017-12-29T00:09:55.146Z,1.10
2017-12-29T00:12:22.685Z,1.10
2017-12-29T00:14:50.233Z,1.00
2017-12-29T00:17:17.766Z,1.00
2017-12-29T00:19:45.328Z,1.00
2017-12-29T00:22:12.917Z,1.00
2017-12-29T00:24:40.465Z,1.00
2017-12-29T00:27:07.998Z,1.10
2017-12-29T00:29:35.551Z,1.10
2017-12-29T00:32:03.090Z,1.10
2017-12-29T00:34:30.633Z,1.00
2017-12-29T00:36:58.921Z,1.10
2017-12-29T00:39:26.480Z,1.10
2017-12-29T00:41:54.765Z,1.10
2017-12-29T00:44:22.690Z,1.10
2017-12-29T00:46:50.220Z,1.20
2017-12-29T00:49:17.769Z,1.10
2017-12-29T00:51:45.293Z,1.20
2017-12-29T00:54:14.695Z,1.20
2017-12-29T00:56:42.985Z,1.20
2017-12-29T00:59:10.630Z,1.20
2017-12-29T01:01:38.210Z,1.10
2017-12-29T01:04:05.762Z,1.10
2017-12-29T01:06:34.046Z,1.20
2017-12-29T01:09:02.382Z,1.20
2017-12-29T01:11:30.696Z,1.10
2017-12-29T01:13:59.009Z,1.10
2017-12-29T01:16:26.767Z,1.10
2017-12-29T01:18:54.313Z,1.10
2017-12-29T01:21:21.854Z,1.10
2017-12-29T01:23:50.190Z,1.20
2017-12-29T01:26:17.759Z,1.20
2017-12-29T01:28:45.311Z,1.30
2017-12-29T01:31:12.842Z,1.20
2017-12-29T01:33:40.410Z,1.20
2017-12-29T01:36:07.947Z,1.30
2017-12-29T01:38:35.505Z,1.20
2017-12-29T01:41:03.037Z,1.20
2017-12-29T01:43:31.358Z,1.30
2017-12-29T01:45:58.901Z,1.20
2017-12-29T01:48:26.447Z,1.20
2017-12-29T01:50:54.769Z,1.20
2017-12-29T01:53:22.305Z,1.20
2017-12-29T01:55:49.867Z,1.20
2017-12-29T01:58:17.410Z,1.20
2017-12-29T02:00:44.966Z,1.20
2017-12-29T02:03:13.261Z,1.30
2017-12-29T02:05:40.817Z,1.30
2017-12-29T02:08:08.346Z,1.30
2017-12-29T02:10:36.682Z,1.20
2017-12-29T02:13:04.224Z,1.20
2017-12-29T02:15:31.784Z,1.30
2017-12-29T02:17:59.310Z,1.20
2017-12-29T02:20:27.625Z,1.40
2017-12-29T02:22:55.158Z,1.40
2017-12-29T02:25:22.722Z,1.40
2017-12-29T02:27:50.263Z,1.40
2017-12-29T02:30:18.596Z,1.30
2017-12-29T02:32:46.130Z,1.30
2017-12-29T02:35:13.682Z,1.30
2017-12-29T02:37:41.210Z,1.40
2017-12-29T02:40:08.769Z,1.40
2017-12-29T02:42:36.314Z,1.40
2017-12-29T02:45:05.328Z,1.40
2017-12-29T02:47:32.916Z,1.30
2017-12-29T02:50:00.479Z,1.30
2017-12-29T02:52:28.013Z,1.40
2017-12-29T02:54:56.334Z,1.30
2017-12-29T02:57:23.861Z,1.30
2017-12-29T02:59:52.181Z,1.40
2017-12-29T03:02:19.706Z,1.30
2017-12-29T03:04:47.249Z,1.30
2017-12-29T03:07:15.550Z,1.30
2017-12-29T03:09:43.106Z,1.30
2017-12-29T03:12:10.645Z,1.30
2017-12-29T03:14:38.970Z,1.30
2017-12-29T03:17:06.493Z,1.30
2017-12-29T03:19:34.809Z,1.30
2017-12-29T03:22:02.335Z,1.30
2017-12-29T03:24:29.882Z,1.40
2017-12-29T03:26:58.173Z,1.40
2017-12-29T03:29:25.729Z,1.30
2017-12-29T03:31:54.014Z,1.40
2017-12-29T03:34:21.566Z,1.40
2017-12-29T03:36:49.856Z,1.40
2017-12-29T03:39:17.409Z,1.40
2017-12-29T03:41:44.943Z,1.40
2017-12-29T03:44:13.271Z,1.30
2017-12-29T03:46:40.809Z,1.30
2017-12-29T03:49:08.382Z,1.30
2017-12-29T03:51:35.914Z,1.30
2017-12-29T03:54:03.454Z,1.40
2017-12-29T03:56:31.014Z,1.30
2017-12-29T03:58:59.317Z,1.30
2017-12-29T04:01:26.874Z,1.30
2017-12-29T04:03:55.160Z,1.40
2017-12-29T04:06:22.720Z,1.40
2017-12-29T04:08:50.243Z,1.40
2017-12-29T04:11:17.806Z,1.30
2017-12-29T04:13:45.337Z,1.30
2017-12-29T04:16:12.890Z,1.30
2017-12-29T04:18:40.470Z,1.30
2017-12-29T04:21:08.022Z,1.30
2017-12-29T04:23:35.541Z,1.30
2017-12-29T04:26:03.097Z,1.30
2017-12-29T04:28:30.617Z,1.30
2017-12-29T04:30:58.167Z,1.40
2017-12-29T04:33:25.735Z,1.30
2017-12-29T04:35:54.075Z,1.30
2017-12-29T04:38:21.603Z,1.20
2017-12-29T04:40:49.188Z,1.30
2017-12-29T04:43:16.722Z,1.30
2017-12-29T04:45:44.273Z,1.30
2017-12-29T04:48:12.564Z,1.40
2017-12-29T04:50:40.120Z,1.30
2017-12-29T04:53:07.655Z,1.30
2017-12-29T04:55:35.208Z,1.30
2017-12-29T04:58:02.792Z,1.30
2017-12-29T05:00:30.310Z,1.30
2017-12-29T05:02:57.839Z,1.20
2017-12-29T05:05:25.397Z,1.20
2017-12-29T05:07:52.948Z,1.00
2017-12-29T05:10:20.518Z,0.90
2017-12-29T05:12:48.059Z,0.90
2017-12-29T05:15:16.372Z,1.00
2017-12-29T05:17:43.907Z,1.00
2017-12-29T05:20:11.458Z,1.00
2017-12-29T05:22:39.022Z,1.00
2017-12-29T05:25:06.598Z,1.10
2017-12-29T05:27:34.136Z,1.10
2017-12-29T05:30:01.778Z,1.10
2017-12-29T05:32:30.079Z,1.10
2017-12-29T05:34:57.642Z,1.10
2017-12-29T05:37:25.166Z,1.10
2017-12-29T05:39:52.726Z,1.10
2017-12-29T05:42:20.293Z,1.10
2017-12-29T05:44:48.613Z,1.10
2017-12-29T05:47:16.134Z,1.10
2017-12-29T05:49:44.430Z,1.10
2017-12-29T05:52:12.026Z,1.10
2017-12-29T05:54:39.578Z,1.10
2017-12-29T05:57:07.334Z,1.10
2017-12-29T05:59:34.862Z,1.00
2017-12-29T06:02:03.177Z,1.00
2017-12-29T06:04:30.719Z,1.00
2017-12-29T06:06:58.286Z,1.00
2017-12-29T06:09:25.837Z,1.00
2017-12-29T06:11:53.422Z,1.00
2017-12-29T06:14:20.982Z,1.00
2017-12-29T06:16:48.526Z,1.00
2017-12-29T06:19:16.081Z,1.00
2017-12-29T06:21:43.671Z,1.00
2017-12-29T06:24:11.196Z,0.90
2017-12-29T06:26:38.799Z,0.90
2017-12-29T06:29:06.317Z,0.90
2017-12-29T06:51:21.125Z,0.90
2017-12-29T06:53:48.677Z,0.90
2017-12-29T06:56:16.226Z,0.80
2017-12-29T06:58:43.786Z,0.70
2017-12-29T07:01:11.371Z,0.70
2017-12-29T07:03:38.954Z,0.70
2017-12-29T07:06:06.539Z,0.60
2017-12-29T07:08:34.174Z,0.50
2017-12-29T07:11:02.507Z,0.50
2017-12-29T07:13:30.076Z,0.50
2017-12-29T07:15:57.617Z,0.50
2017-12-29T07:18:26.109Z,0.50
2017-12-29T07:20:53.653Z,0.50
2017-12-29T07:23:21.987Z,0.50
2017-12-29T07:25:49.547Z,0.50
2017-12-29T07:28:17.906Z,0.50
2017-12-29T07:30:45.479Z,0.50
2017-12-29T07:33:13.051Z,0.40
2017-12-29T07:35:40.585Z,0.50
2017-12-29T07:38:08.152Z,0.60
2017-12-29T07:40:35.717Z,0.60
2017-12-29T07:43:03.270Z,0.60
2017-12-29T07:45:30.813Z,0.50
2017-12-29T07:47:58.351Z,0.50
2017-12-29T07:50:26.686Z,0.50
2017-12-29T07:52:54.216Z,0.50
2017-12-29T07:55:21.780Z,0.50
2017-12-29T07:57:49.326Z,0.50
2017-12-29T08:00:16.898Z,0.50
2017-12-29T08:02:44.426Z,0.50
2017-12-29T08:05:12.742Z,0.50
2017-12-29T08:07:40.269Z,0.50
2017-12-29T08:10:08.592Z,0.50
2017-12-29T08:12:36.226Z,0.40
2017-12-29T08:15:03.783Z,0.40
2017-12-29T08:17:31.368Z,0.50
2017-12-29T08:19:59.005Z,0.50
2017-12-29T08:22:26.536Z,0.50
2017-12-29T08:24:54.857Z,0.50
2017-12-29T08:27:22.387Z,0.50
2017-12-29T08:29:50.069Z,0.50
2017-12-29T08:32:17.611Z,0.60
2017-12-29T08:34:45.172Z,0.60
2017-12-29T08:37:12.713Z,0.60
2017-12-29T08:39:40.265Z,0.60
2017-12-29T08:42:07.810Z,0.70
2017-12-29T08:44:35.358Z,0.80
2017-12-29T08:47:02.979Z,0.70
2017-12-29T08:49:30.570Z,0.80
2017-12-29T08:51:58.130Z,0.70
2017-12-29T08:54:25.657Z,0.70
2017-12-29T08:56:53.216Z,0.70
2017-12-29T08:59:20.954Z,0.70
2017-12-29T09:01:48.516Z,0.80
2017-12-29T09:04:16.052Z,0.90
2017-12-29T09:06:43.615Z,0.90
2017-12-29T09:09:11.863Z,0.80
2017-12-29T09:11:39.587Z,0.90
2017-12-29T09:14:07.131Z,0.90
2017-12-29T09:16:34.687Z,1.00
2017-12-29T09:19:02.214Z,1.00
2017-12-29T09:21:29.765Z,1.10
2017-12-29T09:23:57.289Z,1.10
2017-12-29T09:26:25.613Z,1.10
2017-12-29T09:28:53.133Z,1.10
2017-12-29T09:31:20.684Z,1.00
2017-12-29T09:33:48.218Z,1.10
2017-12-29T09:36:15.786Z,1.10
2017-12-29T09:38:44.090Z,1.20
2017-12-29T09:41:11.655Z,1.20
2017-12-29T09:43:39.182Z,1.30
2017-12-29T09:46:06.720Z,1.40
2017-12-29T09:48:34.274Z,1.40
2017-12-29T09:51:01.798Z,1.40
2017-12-29T09:53:29.359Z,1.50
2017-12-29T09:55:56.883Z,1.60
2017-12-29T09:58:25.204Z,1.90
2017-12-29T10:00:52.740Z,1.80
2017-12-29T10:03:21.067Z,1.80
2017-12-29T10:05:48.606Z,1.80
2017-12-29T10:08:16.177Z,1.80
2017-12-29T10:10:44.478Z,1.80
2017-12-29T10:13:12.039Z,1.80
2017-12-29T10:15:39.585Z,1.80
2017-12-29T10:18:07.141Z,1.90
2017-12-29T10:20:34.678Z,2.00
2017-12-29T10:23:02.228Z,2.10
2017-12-29T10:25:30.526Z,2.00
2017-12-29T10:27:58.086Z,2.00
2017-12-29T10:30:25.611Z,2.10
2017-12-29T10:32:53.178Z,2.20
2017-12-29T10:35:20.709Z,2.30
2017-12-29T10:37:49.026Z,2.20
2017-12-29T10:40:16.577Z,2.20
2017-12-29T10:42:44.178Z,2.30
2017-12-29T10:45:11.710Z,2.20
2017-12-29T10:47:39.471Z,2.20
2017-12-29T10:50:07.025Z,2.10
2017-12-29T10:52:34.554Z,2.10
2017-12-29T10:55:02.873Z,2.10
2017-12-29T10:57:30.414Z,2.10
2017-12-29T10:59:57.970Z,2.10
2017-12-29T11:02:25.506Z,2.10
2017-12-29T11:05:03.818Z,2.20
2017-12-29T11:07:32.616Z,2.30
2017-12-29T11:10:00.254Z,2.30
2017-12-29T11:12:28.572Z,2.30
2017-12-29T11:14:56.223Z,2.20
2017-12-29T11:17:23.786Z,2.30
2017-12-29T11:19:51.362Z,2.30
2017-12-29T11:22:18.882Z,2.20
2017-12-29T11:24:46.426Z,2.20
2017-12-29T11:27:13.972Z,2.20
2017-12-29T11:29:41.522Z,2.20
2017-12-29T11:32:09.126Z,2.20
2017-12-29T11:34:37.612Z,2.20
2017-12-29T11:37:05.933Z,2.30
2017-12-29T11:39:33.487Z,2.30
2017-12-29T11:42:01.027Z,2.30
2017-12-29T11:44:28.578Z,2.30
2017-12-29T11:46:56.875Z,2.40
2017-12-29T11:49:24.435Z,2.40
2017-12-29T11:51:51.969Z,2.50
2017-12-29T11:54:20.270Z,2.50
2017-12-29T11:56:47.824Z,2.40
2017-12-29T11:59:15.356Z,2.50
2017-12-29T12:01:42.912Z,2.50
2017-12-29T12:04:10.451Z,2.50
2017-12-29T12:06:37.999Z,2.50
2017-12-29T12:09:06.384Z,2.60
2017-12-29T12:11:33.935Z,2.60
2017-12-29T12:14:01.475Z,2.50
2017-12-29T12:16:29.026Z,2.40
2017-12-29T12:18:56.580Z,2.40
2017-12-29T12:21:24.128Z,2.40
2017-12-29T12:23:52.430Z,2.40
2017-12-29T12:26:19.978Z,2.40
2017-12-29T12:28:47.515Z,2.40
2017-12-29T12:31:15.894Z,2.40
2017-12-29T12:33:44.190Z,2.40
2017-12-29T12:36:11.738Z,2.40
2017-12-29T12:38:40.035Z,2.30
2017-12-29T12:41:07.590Z,2.30
2017-12-29T12:43:35.114Z,2.40
2017-12-29T12:46:02.694Z,2.50
2017-12-29T12:48:31.007Z,2.40
2017-12-29T12:50:58.554Z,2.40
2017-12-29T12:53:26.138Z,2.50
2017-12-29T12:55:53.675Z,2.50
2017-12-29T12:58:21.239Z,2.50
2017-12-29T13:00:48.780Z,2.50
2017-12-29T13:03:16.330Z,2.50
2017-12-29T13:05:44.631Z,2.50
2017-12-29T13:08:12.190Z,2.50
2017-12-29T13:10:39.714Z,2.50
2017-12-29T13:13:07.271Z,2.50
2017-12-29T13:15:34.795Z,2.50
2017-12-29T13:18:02.343Z,2.50
2017-12-29T13:20:29.881Z,2.50
2017-12-29T13:22:57.425Z,2.40
2017-12-29T13:25:24.968Z,2.40
2017-12-29T13:27:52.509Z,2.40
2017-12-29T13:30:20.034Z,2.20
2017-12-29T13:32:47.591Z,2.00
2017-12-29T13:35:15.114Z,1.90
2017-12-29T13:37:43.797Z,1.90
2017-12-29T13:40:12.102Z,1.80
2017-12-29T13:42:39.649Z,1.80
2017-12-29T13:45:07.944Z,1.60
2017-12-29T13:47:35.578Z,1.60
2017-12-29T13:50:03.879Z,1.70
2017-12-29T13:52:31.431Z,1.60
2017-12-29T13:54:58.961Z,1.60
2017-12-29T13:57:26.493Z,1.60
2017-12-29T13:59:54.047Z,1.60
2017-12-29T14:02:22.366Z,1.60
2017-12-29T14:04:50.685Z,1.60
2017-12-29T14:07:18.222Z,1.60
2017-12-29T14:09:45.787Z,1.50
2017-12-29T14:12:13.326Z,1.30
2017-12-29T14:14:41.639Z,1.20
2017-12-29T14:17:09.958Z,1.10
2017-12-29T14:19:37.510Z,1.10
2017-12-29T14:22:05.039Z,1.00
2017-12-29T14:24:32.586Z,0.90
2017-12-29T14:27:00.107Z,0.80
2017-12-29T14:29:27.662Z,0.80
2017-12-29T14:31:55.183Z,0.70
2017-12-29T14:34:22.737Z,0.70
2017-12-29T14:36:50.262Z,0.60
2017-12-29T14:39:17.817Z,0.60
2017-12-29T14:41:46.118Z,0.60
2017-12-29T14:44:13.670Z,0.60
2017-12-29T14:46:41.246Z,0.60
2017-12-29T14:49:08.800Z,0.50
2017-12-29T14:51:36.334Z,0.50
2017-12-29T14:54:04.649Z,0.50
2017-12-29T14:56:32.178Z,0.50
2017-12-29T14:58:59.718Z,0.40
2017-12-29T15:01:27.285Z,0.40
2017-12-29T15:03:55.584Z,0.40
2017-12-29T15:06:23.135Z,0.30
2017-12-29T15:08:51.429Z,0.40
2017-12-29T15:11:18.981Z,0.40
2017-12-29T15:13:46.507Z,0.40
2017-12-29T15:16:14.061Z,0.30
2017-12-29T15:18:41.593Z,0.40
2017-12-29T15:21:09.142Z,0.40
2017-12-29T15:23:36.673Z,0.30
2017-12-29T15:26:04.243Z,0.30
2017-12-29T15:28:31.778Z,0.30
2017-12-29T15:30:59.355Z,0.30
2017-12-29T15:33:26.886Z,0.20
2017-12-29T15:35:55.277Z,0.20
2017-12-29T15:38:22.790Z,0.20
2017-12-29T15:40:55.770Z,0.20
2017-12-29T15:43:23.297Z,0.20
2017-12-29T15:45:50.862Z,0.20
2017-12-29T15:48:18.394Z,0.30
2017-12-29T15:50:49.149Z,0.20
2017-12-29T15:53:16.686Z,0.20
2017-12-29T15:55:45.013Z,0.30
2017-12-29T15:58:12.551Z,0.30
2017-12-29T16:00:40.114Z,0.30
2017-12-29T16:03:07.645Z,0.30
2017-12-29T16:05:35.945Z,0.40
2017-12-29T16:08:03.506Z,0.40
2017-12-29T16:10:31.041Z,0.40
2017-12-29T16:12:59.367Z,0.40
2017-12-29T16:15:26.895Z,0.40
2017-12-29T16:17:54.473Z,0.50
2017-12-29T16:20:22.003Z,0.50
2017-12-29T16:22:50.324Z,0.50
2017-12-29T16:25:17.854Z,0.50
2017-12-29T16:27:45.407Z,0.50
2017-12-29T16:30:13.701Z,0.60
2017-12-29T16:32:41.262Z,0.60
2017-12-29T16:35:08.798Z,0.60
2017-12-29T16:37:37.117Z,0.70
2017-12-29T16:40:04.659Z,0.70
2017-12-29T16:42:32.218Z,0.70
2017-12-29T16:44:59.746Z,0.70
2017-12-29T16:47:28.066Z,0.80
2017-12-29T16:49:55.617Z,0.80
2017-12-29T16:52:23.170Z,0.80
2017-12-29T16:54:50.697Z,0.80
2017-12-29T16:57:18.267Z,0.90
2017-12-29T16:59:46.643Z,0.80
2017-12-29T17:02:14.283Z,0.80
2017-12-29T17:04:42.757Z,0.80
2017-12-29T17:07:10.517Z,0.80
2017-12-29T17:09:38.135Z,0.80
2017-12-29T17:12:05.701Z,0.80
2017-12-29T17:14:33.230Z,0.80
2017-12-29T17:17:01.557Z,0.80
2017-12-29T17:19:29.108Z,0.80
2017-12-29T17:21:56.658Z,0.80
2017-12-29T17:24:24.349Z,0.70
2017-12-29T17:26:52.870Z,0.80
2017-12-29T17:29:21.270Z,0.80
2017-12-29T17:31:48.848Z,0.80
2017-12-29T17:34:16.594Z,0.90
2017-12-29T17:36:45.034Z,1.00
2017-12-29T17:39:12.925Z,1.00
2017-12-29T17:41:40.507Z,1.00
2017-12-29T17:44:08.037Z,1.00
2017-12-29T17:46:35.667Z,1.10
2017-12-29T17:49:04.010Z,1.20
2017-12-29T17:51:31.832Z,1.20
2017-12-29T17:53:59.507Z,1.20
2017-12-29T17:56:27.907Z,1.30
2017-12-29T17:58:56.300Z,1.40
2017-12-29T18:01:23.845Z,1.40
2017-12-29T18:03:52.173Z,1.40
2017-12-29T18:06:19.942Z,1.40
2017-12-29T18:08:47.496Z,1.40
2017-12-29T18:11:15.030Z,1.40
2017-12-29T18:13:42.579Z,1.50
2017-12-29T18:16:10.264Z,1.50
2017-12-29T18:18:37.938Z,1.50
2017-12-29T18:21:05.716Z,1.60
2017-12-29T18:23:34.039Z,1.60
2017-12-29T18:26:02.527Z,1.70
2017-12-29T18:28:30.259Z,1.70
2017-12-29T18:30:57.909Z,1.60
2017-12-29T18:33:25.538Z,1.60
2017-12-29T18:35:53.342Z,1.60
2017-12-29T18:38:22.356Z,1.60
2017-12-29T18:40:50.799Z,1.60
2017-12-29T18:43:18.633Z,1.60
2017-12-29T18:45:46.480Z,1.50
2017-12-29T18:48:14.427Z,1.50
2017-12-29T18:50:42.003Z,1.60
2017-12-29T18:53:09.870Z,1.50
2017-12-29T18:55:37.847Z,1.50
2017-12-29T18:58:05.550Z,1.50
2017-12-29T19:00:33.420Z,1.50
2017-12-29T19:03:01.062Z,1.50
2017-12-29T19:05:29.046Z,1.50
2017-12-29T19:07:56.685Z,1.50
2017-12-29T19:10:24.215Z,1.50
2017-12-29T19:12:53.051Z,1.60
2017-12-29T19:15:21.410Z,1.50
2017-12-29T19:17:48.998Z,1.50
2017-12-29T19:20:16.594Z,1.50
2017-12-29T19:22:44.429Z,1.50
2017-12-29T19:25:12.036Z,1.60
2017-12-29T19:27:40.330Z,1.60
2017-12-29T19:30:08.300Z,1.70
2017-12-29T19:32:36.233Z,1.70
2017-12-29T19:35:04.007Z,1.70
2017-12-29T19:37:31.542Z,1.70
2017-12-29T19:39:59.110Z,1.80
2017-12-29T19:42:26.651Z,1.80
2017-12-29T19:44:54.298Z,1.80
2017-12-29T19:47:21.837Z,1.80
2017-12-29T19:49:49.401Z,1.90
2017-12-29T19:52:16.943Z,1.90
2017-12-29T19:54:45.275Z,2.00
2017-12-29T19:57:12.826Z,2.00
2017-12-29T19:59:40.398Z,2.00
2017-12-29T20:02:07.931Z,2.00
2017-12-29T20:04:35.673Z,2.10
2017-12-29T20:07:03.209Z,2.20
2017-12-29T20:09:30.862Z,2.30
2017-12-29T20:11:58.527Z,2.40
2017-12-29T20:14:26.100Z,2.40
2017-12-29T20:16:54.401Z,2.60
2017-12-29T20:19:21.982Z,2.50
2017-12-29T20:21:49.508Z,2.70
2017-12-29T20:24:17.793Z,2.90
2017-12-29T20:26:45.355Z,2.80
2017-12-29T20:29:12.898Z,2.90
2017-12-29T20:31:41.534Z,3.00
2017-12-29T20:34:09.147Z,3.00
2017-12-29T20:36:36.702Z,3.10
2017-12-29T20:39:05.000Z,3.20
2017-12-29T20:41:32.563Z,3.10
2017-12-29T20:44:00.086Z,3.20
2017-12-29T20:46:27.650Z,3.30
2017-12-29T20:48:55.962Z,3.40
2017-12-29T20:51:23.518Z,3.30
2017-12-29T20:53:51.065Z,3.40
2017-12-29T20:56:19.387Z,3.50
2017-12-29T20:58:46.913Z,3.40
2017-12-29T21:01:14.469Z,3.40
2017-12-29T21:03:41.997Z,3.50
2017-12-29T21:06:09.550Z,3.60
2017-12-29T21:08:37.084Z,3.60
2017-12-29T21:11:04.660Z,3.60
2017-12-29T21:13:32.331Z,3.50
2017-12-29T21:16:00.072Z,3.50
2017-12-29T21:18:27.745Z,3.50
2017-12-29T21:20:55.403Z,3.50
2017-12-29T21:23:23.399Z,3.50
2017-12-29T21:25:50.957Z,3.50
2017-12-29T21:28:18.625Z,3.60
2017-12-29T21:30:47.147Z,3.60
2017-12-29T21:33:15.610Z,3.60
2017-12-29T21:35:43.175Z,3.60
2017-12-29T21:38:11.283Z,3.60
2017-12-29T21:40:39.049Z,3.70
2017-12-29T21:43:06.861Z,3.70
2017-12-29T21:45:35.203Z,3.60
2017-12-29T21:48:02.806Z,3.60
2017-12-29T21:50:31.154Z,3.60
2017-12-29T21:52:58.860Z,3.60
2017-12-29T21:55:26.398Z,3.60
2017-12-29T21:57:54.726Z,3.50
2017-12-29T22:00:22.284Z,3.50
2017-12-29T22:02:50.621Z,3.40
2017-12-29T22:05:19.015Z,3.40
2017-12-29T22:07:46.583Z,3.40
2017-12-29T22:10:14.126Z,3.30
2017-12-29T22:12:42.538Z,3.40
2017-12-29T22:15:10.078Z,3.30
2017-12-29T22:17:37.667Z,3.30
2017-12-29T22:20:05.271Z,3.30
2017-12-29T22:22:33.603Z,3.30
2017-12-29T22:25:01.140Z,3.30
2017-12-29T22:27:28.718Z,3.30
2017-12-29T22:29:56.322Z,3.40
2017-12-29T22:32:24.134Z,3.40
2017-12-29T22:34:51.789Z,3.40
2017-12-29T22:37:19.325Z,3.50
2017-12-29T22:39:47.737Z,3.50
2017-12-29T22:42:15.321Z,3.50
2017-12-29T22:44:42.879Z,3.50
2017-12-29T22:47:10.418Z,3.60
2017-12-29T22:49:37.982Z,3.60
2017-12-29T22:52:05.518Z,3.70
2017-12-29T22:54:33.094Z,3.70
2017-12-29T22:57:00.630Z,3.70
2017-12-29T22:59:28.955Z,3.70
2017-12-29T23:01:56.477Z,3.70
2017-12-29T23:04:24.033Z,3.70
2017-12-29T23:06:52.358Z,3.70
2017-12-29T23:09:20.725Z,3.70
2017-12-29T23:11:48.264Z,3.60
2017-12-29T23:14:15.839Z,3.60
2017-12-29T23:16:43.382Z,3.70
2017-12-29T23:19:10.959Z,3.70
2017-12-29T23:21:38.535Z,3.70
2017-12-29T23:24:06.119Z,3.70
2017-12-29T23:26:34.453Z,3.60
2017-12-29T23:29:02.027Z,3.60
2017-12-29T23:31:29.570Z,3.60
2017-12-29T23:33:57.175Z,3.60
2017-12-29T23:36:24.791Z,3.60
2017-12-29T23:38:52.334Z,3.50
2017-12-29T23:41:19.939Z,3.50
2017-12-29T23:43:47.499Z,3.40
2017-12-29T23:46:15.094Z,3.40
2017-12-29T23:48:43.413Z,3.20
2017-12-29T23:51:10.978Z,3.20
2017-12-29T23:53:38.518Z,3.10
2017-12-29T23:56:06.094Z,3.00
2017-12-29T23:58:33.668Z,3.00
